WetterOnline ( https://www.wetteronline.ch )

Wetter aktuell St. Peter-Ording

Aktuelles Wetter: St. Peter-Ording (11m)

6-stündlich | Neueste Meldungen
Ortszeit Temperatur Wetter
Do, 01.10. 2:00 13.3° C wolkig
Mi, 30.09. 20:00 13.3° C wolkig
Mi, 30.09. 14:00 16.0° C wolkig
Mi, 30.09. 8:00 12.0° C leichter Regen
Mi, 30.09. 2:00 13.4° C leicht bewölkt
Di, 29.09. 20:00 13.8° C bewölkt
Di, 29.09. 14:00 14.8° C bedeckt
Di, 29.09. 8:00 12.3° C bewölkt
Ortszeit Temperatur Wetter
Do, 01.10. 5:30 11.4° C wolkenlos
Do, 01.10. 5:20 11.4° C wolkenlos
Do, 01.10. 5:10 11.6° C wolkenlos
Do, 01.10. 5:00 11.7° C fast wolkenlos
Do, 01.10. 4:50 11.7° C fast wolkenlos
Do, 01.10. 4:40 11.8° C fast wolkenlos
Do, 01.10. 4:30 12.0° C leicht bewölkt
Do, 01.10. 4:00 12.8° C bedeckt
Do, 01.10. 3:30 12.9° C wolkig
Do, 01.10. 3:00 12.9° C fast wolkenlos
Do, 01.10. 2:30 13.0° C wolkenlos
Do, 01.10. 2:00 13.3° C wolkig
Ortszeit Relative Feuchte Sichtweite
Do, 01.10. 2:00 94% 8 km
Mi, 30.09. 20:00 97% 2.5 km
Mi, 30.09. 14:00 81% 6 km
Mi, 30.09. 8:00 100% 100 m
Mi, 30.09. 2:00 87% 40 km
Di, 29.09. 20:00 88% 13 km
Di, 29.09. 14:00 74% 30 km
Di, 29.09. 8:00 90% 11 km
Ortszeit Relative Feuchte Sichtweite
Do, 01.10. 5:30 93% 6 km
Do, 01.10. 5:20 93% -
Do, 01.10. 5:10 93% -
Do, 01.10. 5:00 93% 6 km
Do, 01.10. 4:50 93% -
Do, 01.10. 4:40 92% -
Do, 01.10. 4:30 92% 7 km
Do, 01.10. 4:00 91% 8 km
Do, 01.10. 3:30 92% 7 km
Do, 01.10. 3:00 93% 6 km
Do, 01.10. 2:30 94% 7 km
Do, 01.10. 2:00 94% 8 km
Ortszeit Niederschlagsmenge Niederschlagsart
Do, 01.10. 2:00 0.0 l/m2 in 6 Std. -
Mi, 30.09. 20:00 0.1 l/m2 in 12 Std. -
Mi, 30.09. 14:00 0.1 l/m2 in 6 Std. Regen
Mi, 30.09. 8:00 0.6 l/m2 in 12 Std. Regen
Mi, 30.09. 2:00 0.6 l/m2 in 6 Std. Regen
Di, 29.09. 20:00 0.1 l/m2 in 12 Std. Regen
Di, 29.09. 14:00 0.1 l/m2 in 6 Std. Regen
Di, 29.09. 8:00 1 l/m2 in 12 Std. Regen
Ortszeit Niederschlagsmenge Niederschlagsart
Do, 01.10. 5:30 0.0 l/m2 in 1 Std. -
Do, 01.10. 5:20 keine Meldung -
Do, 01.10. 5:10 keine Meldung -
Do, 01.10. 5:00 0.0 l/m2 in 1 Std. -
Do, 01.10. 4:50 keine Meldung -
Do, 01.10. 4:40 keine Meldung -
Do, 01.10. 4:30 0.0 l/m2 in 1 Std. -
Do, 01.10. 4:00 0.0 l/m2 in 1 Std. -
Do, 01.10. 3:30 0.0 l/m2 in 1 Std. -
Do, 01.10. 3:00 0.0 l/m2 in 1 Std. -
Do, 01.10. 2:30 0.0 l/m2 in 1 Std. -
Do, 01.10. 2:00 0.0 l/m2 in 1 Std. -
Ortszeit Stärke Spitze Richtung
km/h Bft. km/h Grad Sektor
Do, 01.10. 2:00 15 3 26 130° SO
Mi, 30.09. 20:00 9 2 31 120° SO
Mi, 30.09. 14:00 22 4 32 190° S
Mi, 30.09. 8:00 11 2 22 150° SO
Mi, 30.09. 2:00 14 3 29 260° W
Di, 29.09. 20:00 19 3 31 180° S
Di, 29.09. 14:00 19 3 30 160° S
Di, 29.09. 8:00 14 3 29 170° S
Ortszeit Stärke Spitze Richtung
km/h Bft. km/h Grad Sektor
Do, 01.10. 5:30 20 4 28 120° SO
Do, 01.10. 5:20 20 4 - 120° SO
Do, 01.10. 5:10 18 3 - 120° SO
Do, 01.10. 5:00 17 3 26 110° O
Do, 01.10. 4:50 17 3 - 110° O
Do, 01.10. 4:40 17 3 - 110° O
Do, 01.10. 4:30 18 3 25 110° O
Do, 01.10. 4:00 18 3 25 120° SO
Do, 01.10. 3:30 14 3 25 120° SO
Do, 01.10. 3:00 14 3 25 120° SO
Do, 01.10. 2:30 14 3 22 120° SO
Do, 01.10. 2:00 15 3 26 130° SO
Ortszeit Untergrenze Bedeckung Gattung
total tief tief mittel hoch
Do, 01.10. 2:00 7500 m 7/8 0/8 - - -
Mi, 30.09. 20:00 2700 m 6/8 3/8 - - -
Mi, 30.09. 14:00 240 m 5/8 5/8 - - -
Mi, 30.09. 8:00 <30 m 8/8 0/8 - - -
Mi, 30.09. 2:00 600 m 3/8 3/8 - - -
Di, 29.09. 20:00 270 m 7/8 7/8 - - -
Di, 29.09. 14:00 1800 m 8/8 8/8 - - -
Di, 29.09. 8:00 1080 m 7/8 7/8 - - -
Ortszeit Bedeckungsgrad in Achtel und Wolkenuntergrenze
Do, 01.10. 5:30 keine Wolken
Do, 01.10. 5:20 keine Wolken
Do, 01.10. 5:10 keine Wolken
Do, 01.10. 5:00 1(3300m)
Do, 01.10. 4:50 1(3300m)
Do, 01.10. 4:40 1(3300m)
Do, 01.10. 4:30 3(3300m)
Do, 01.10. 4:00 8(3300m)
Do, 01.10. 3:30 6(3000m)
Do, 01.10. 3:00 1(3300m)
Do, 01.10. 2:30 keine Wolken
Do, 01.10. 2:00 6(7500m) 7(10500m)
Ortszeit Luftdruck NN (hPa) Tendenz (hPa in 3 Std.)
Do, 01.10. 2:00 1010 - 1,5
Mi, 30.09. 20:00 1013 - 0,6
Mi, 30.09. 14:00 1015 - 0,5
Mi, 30.09. 8:00 1015 0,0
Mi, 30.09. 2:00 1016 - 0,1
Di, 29.09. 20:00 1015 + 0,6
Di, 29.09. 14:00 1015 + 0,1
Di, 29.09. 8:00 1014 + 0,9
Ortszeit Luftdruck NN (hPa) Tendenz (hPa in 3 Std.)
Do, 01.10. 5:30 1008 - 2,1
Do, 01.10. 5:20 1008 keine Meldung
Do, 01.10. 5:10 1008 keine Meldung
Do, 01.10. 5:00 1008 - 2,2
Do, 01.10. 4:50 1008 keine Meldung
Do, 01.10. 4:40 1008 keine Meldung
Do, 01.10. 4:30 1009 - 2,2
Do, 01.10. 4:00 1009 - 2,0
Do, 01.10. 3:30 1009 - 1,9
Do, 01.10. 3:00 1010 - 1,7
Do, 01.10. 2:30 1010 - 1,6
Do, 01.10. 2:00 1010 - 1,5
Ortszeit Schneehöhe (cm)
Do, 01.10. 2:00 -
Mi, 30.09. 20:00 -
Mi, 30.09. 14:00 -
Mi, 30.09. 8:00 -
Mi, 30.09. 2:00 -
Di, 29.09. 20:00 -
Di, 29.09. 14:00 -
Di, 29.09. 8:00 -
Ortszeit Schneehöhe (cm)
Do, 01.10. 5:30 -
Do, 01.10. 5:20 -
Do, 01.10. 5:10 -
Do, 01.10. 5:00 -
Do, 01.10. 4:50 -
Do, 01.10. 4:40 -
Do, 01.10. 4:30 -
Do, 01.10. 4:00 -
Do, 01.10. 3:30 -
Do, 01.10. 3:00 -
Do, 01.10. 2:30 -
Do, 01.10. 2:00 -
Link zu dieser Seite / Seite empfehlen

Das Wetter in ...